sensor_id;sensor_type;location;lat;lon;timestamp;temperature;humidity
64874;HTU21D;51367;45.204;38.576;2023-09-19T00:00:38;14.62;56.07
64874;HTU21D;51367;45.204;38.576;2023-09-19T00:03:06;14.59;56.12
64874;HTU21D;51367;45.204;38.576;2023-09-19T00:05:36;14.55;56.22
64874;HTU21D;51367;45.204;38.576;2023-09-19T00:08:04;14.51;56.26
64874;HTU21D;51367;45.204;38.576;2023-09-19T00:10:31;14.49;56.35
64874;HTU21D;51367;45.204;38.576;2023-09-19T00:13:01;14.45;56.40
64874;HTU21D;51367;45.204;38.576;2023-09-19T00:15:39;14.41;56.48
64874;HTU21D;51367;45.204;38.576;2023-09-19T00:18:06;14.39;56.50
64874;HTU21D;51367;45.204;38.576;2023-09-19T00:20:35;14.36;56.59
64874;HTU21D;51367;45.204;38.576;2023-09-19T00:23:02;14.34;56.63
64874;HTU21D;51367;45.204;38.576;2023-09-19T00:25:37;14.29;56.67
64874;HTU21D;51367;45.204;38.576;2023-09-19T00:28:04;14.25;56.58
64874;HTU21D;51367;45.204;38.576;2023-09-19T00:30:31;14.24;56.64
64874;HTU21D;51367;45.204;38.576;2023-09-19T00:32:57;14.20;56.71
64874;HTU21D;51367;45.204;38.576;2023-09-19T00:35:23;14.18;56.79
64874;HTU21D;51367;45.204;38.576;2023-09-19T00:37:53;14.13;56.86
64874;HTU21D;51367;45.204;38.576;2023-09-19T00:40:19;14.09;56.94
64874;HTU21D;51367;45.204;38.576;2023-09-19T00:42:47;14.06;57.03
64874;HTU21D;51367;45.204;38.576;2023-09-19T00:45:16;14.03;57.07
64874;HTU21D;51367;45.204;38.576;2023-09-19T00:47:48;13.99;57.19
64874;HTU21D;51367;45.204;38.576;2023-09-19T00:50:19;13.96;57.20
64874;HTU21D;51367;45.204;38.576;2023-09-19T00:52:48;13.94;57.28
64874;HTU21D;51367;45.204;38.576;2023-09-19T00:55:16;13.90;57.33
64874;HTU21D;51367;45.204;38.576;2023-09-19T00:57:45;13.86;57.39
64874;HTU21D;51367;45.204;38.576;2023-09-19T01:00:11;13.83;57.45
64874;HTU21D;51367;45.204;38.576;2023-09-19T01:02:43;13.80;57.55
64874;HTU21D;51367;45.204;38.576;2023-09-19T01:05:10;13.75;57.55
64874;HTU21D;51367;45.204;38.576;2023-09-19T01:07:36;13.74;57.63
64874;HTU21D;51367;45.204;38.576;2023-09-19T01:10:10;13.68;57.71
64874;HTU21D;51367;45.204;38.576;2023-09-19T01:23:18;13.50;58.02
64874;HTU21D;51367;45.204;38.576;2023-09-19T01:31:47;13.39;58.19
64874;HTU21D;51367;45.204;38.576;2023-09-19T01:34:14;13.36;58.25
64874;HTU21D;51367;45.204;38.576;2023-09-19T01:36:40;13.33;58.26
64874;HTU21D;51367;45.204;38.576;2023-09-19T01:39:09;13.30;58.31
64874;HTU21D;51367;45.204;38.576;2023-09-19T01:47:26;13.22;58.47
64874;HTU21D;51367;45.204;38.576;2023-09-19T01:50:02;13.20;58.47
64874;HTU21D;51367;45.204;38.576;2023-09-19T01:52:36;13.17;58.57
64874;HTU21D;51367;45.204;38.576;2023-09-19T01:55:09;13.12;58.64
64874;HTU21D;51367;45.204;38.576;2023-09-19T01:58:08;13.08;58.82
64874;HTU21D;51367;45.204;38.576;2023-09-19T02:00:41;13.04;58.70
64874;HTU21D;51367;45.204;38.576;2023-09-19T02:03:09;13.01;58.77
64874;HTU21D;51367;45.204;38.576;2023-09-19T02:05:35;12.97;58.81
64874;HTU21D;51367;45.204;38.576;2023-09-19T02:08:01;12.94;58.88
64874;HTU21D;51367;45.204;38.576;2023-09-19T02:10:28;12.92;58.95
64874;HTU21D;51367;45.204;38.576;2023-09-19T02:12:54;12.90;59.01
64874;HTU21D;51367;45.204;38.576;2023-09-19T02:15:20;12.87;59.06
64874;HTU21D;51367;45.204;38.576;2023-09-19T02:17:45;12.84;59.12
64874;HTU21D;51367;45.204;38.576;2023-09-19T02:20:12;12.80;59.19
64874;HTU21D;51367;45.204;38.576;2023-09-19T02:22:39;12.79;59.25
64874;HTU21D;51367;45.204;38.576;2023-09-19T02:25:05;12.75;59.28
64874;HTU21D;51367;45.204;38.576;2023-09-19T02:27:33;12.73;59.33
64874;HTU21D;51367;45.204;38.576;2023-09-19T02:29:58;12.70;59.40
64874;HTU21D;51367;45.204;38.576;2023-09-19T02:32:28;12.65;59.50
64874;HTU21D;51367;45.204;38.576;2023-09-19T02:34:55;12.63;59.54
64874;HTU21D;51367;45.204;38.576;2023-09-19T02:37:21;12.61;59.60
64874;HTU21D;51367;45.204;38.576;2023-09-19T02:39:47;12.59;59.63
64874;HTU21D;51367;45.204;38.576;2023-09-19T02:42:13;12.57;59.70
64874;HTU21D;51367;45.204;38.576;2023-09-19T02:44:39;12.55;59.70
64874;HTU21D;51367;45.204;38.576;2023-09-19T02:47:05;12.52;59.75
64874;HTU21D;51367;45.204;38.576;2023-09-19T02:49:32;12.49;59.80
64874;HTU21D;51367;45.204;38.576;2023-09-19T02:51:58;12.48;59.86
64874;HTU21D;51367;45.204;38.576;2023-09-19T02:54:25;12.45;59.90
64874;HTU21D;51367;45.204;38.576;2023-09-19T02:56:51;12.42;59.96
64874;HTU21D;51367;45.204;38.576;2023-09-19T02:59:19;12.41;59.98
64874;HTU21D;51367;45.204;38.576;2023-09-19T03:01:45;12.38;60.04
64874;HTU21D;51367;45.204;38.576;2023-09-19T03:04:14;12.36;60.06
64874;HTU21D;51367;45.204;38.576;2023-09-19T03:06:47;12.33;60.12
64874;HTU21D;51367;45.204;38.576;2023-09-19T03:09:14;12.31;60.15
64874;HTU21D;51367;45.204;38.576;2023-09-19T03:11:41;12.29;60.23
64874;HTU21D;51367;45.204;38.576;2023-09-19T03:14:08;12.28;60.26
64874;HTU21D;51367;45.204;38.576;2023-09-19T03:16:36;12.26;60.30
64874;HTU21D;51367;45.204;38.576;2023-09-19T03:19:04;12.25;60.35
64874;HTU21D;51367;45.204;38.576;2023-09-19T03:21:31;12.25;60.40
64874;HTU21D;51367;45.204;38.576;2023-09-19T03:23:57;12.26;60.43
64874;HTU21D;51367;45.204;38.576;2023-09-19T03:26:24;12.28;60.46
64874;HTU21D;51367;45.204;38.576;2023-09-19T03:28:52;12.28;60.48
64874;HTU21D;51367;45.204;38.576;2023-09-19T03:31:18;12.30;60.51
64874;HTU21D;51367;45.204;38.576;2023-09-19T03:33:46;12.34;60.54
64874;HTU21D;51367;45.204;38.576;2023-09-19T03:36:12;12.36;60.56
64874;HTU21D;51367;45.204;38.576;2023-09-19T03:38:39;12.41;60.62
64874;HTU21D;51367;45.204;38.576;2023-09-19T03:41:06;12.45;60.60
64874;HTU21D;51367;45.204;38.576;2023-09-19T03:43:34;12.51;60.60
64874;HTU21D;51367;45.204;38.576;2023-09-19T03:46:03;12.58;60.63
64874;HTU21D;51367;45.204;38.576;2023-09-19T03:48:31;12.67;60.59
64874;HTU21D;51367;45.204;38.576;2023-09-19T03:50:58;12.76;60.60
64874;HTU21D;51367;45.204;38.576;2023-09-19T03:53:24;12.82;60.55
64874;HTU21D;51367;45.204;38.576;2023-09-19T03:55:50;12.92;60.57
64874;HTU21D;51367;45.204;38.576;2023-09-19T03:58:17;13.03;60.54
64874;HTU21D;51367;45.204;38.576;2023-09-19T04:00:43;13.11;60.57
64874;HTU21D;51367;45.204;38.576;2023-09-19T04:03:09;13.21;60.55
64874;HTU21D;51367;45.204;38.576;2023-09-19T04:05:45;13.34;60.51
64874;HTU21D;51367;45.204;38.576;2023-09-19T04:08:12;13.46;60.49
64874;HTU21D;51367;45.204;38.576;2023-09-19T04:10:38;13.60;60.55
64874;HTU21D;51367;45.204;38.576;2023-09-19T04:13:04;13.79;60.89
64874;HTU21D;51367;45.204;38.576;2023-09-19T04:15:30;14.21;60.79
64874;HTU21D;51367;45.204;38.576;2023-09-19T04:17:56;14.67;60.25
64874;HTU21D;51367;45.204;38.576;2023-09-19T04:20:22;15.08;59.74
64874;HTU21D;51367;45.204;38.576;2023-09-19T04:22:48;15.37;59.37
64874;HTU21D;51367;45.204;38.576;2023-09-19T04:25:14;15.60;59.03
64874;HTU21D;51367;45.204;38.576;2023-09-19T04:27:40;15.82;58.78
64874;HTU21D;51367;45.204;38.576;2023-09-19T04:30:10;16.01;58.70
64874;HTU21D;51367;45.204;38.576;2023-09-19T04:32:40;16.18;58.94
64874;HTU21D;51367;45.204;38.576;2023-09-19T04:35:07;16.33;59.06
64874;HTU21D;51367;45.204;38.576;2023-09-19T04:37:38;16.50;59.24
64874;HTU21D;51367;45.204;38.576;2023-09-19T04:40:08;16.74;59.27
64874;HTU21D;51367;45.204;38.576;2023-09-19T04:42:53;17.03;59.06
64874;HTU21D;51367;45.204;38.576;2023-09-19T04:45:25;17.31;58.70
64874;HTU21D;51367;45.204;38.576;2023-09-19T04:47:52;17.58;58.34
64874;HTU21D;51367;45.204;38.576;2023-09-19T04:50:18;17.80;57.98
64874;HTU21D;51367;45.204;38.576;2023-09-19T04:52:50;18.00;57.81
64874;HTU21D;51367;45.204;38.576;2023-09-19T04:55:18;18.17;57.80
64874;HTU21D;51367;45.204;38.576;2023-09-19T04:57:48;18.34;57.77
64874;HTU21D;51367;45.204;38.576;2023-09-19T05:00:17;18.54;57.71
64874;HTU21D;51367;45.204;38.576;2023-09-19T05:02:46;18.70;57.54
64874;HTU21D;51367;45.204;38.576;2023-09-19T05:05:14;18.83;57.42
64874;HTU21D;51367;45.204;38.576;2023-09-19T05:07:41;18.99;57.16
64874;HTU21D;51367;45.204;38.576;2023-09-19T05:10:07;19.13;56.85
64874;HTU21D;51367;45.204;38.576;2023-09-19T05:12:36;19.22;56.64
64874;HTU21D;51367;45.204;38.576;2023-09-19T05:15:03;19.35;56.27
64874;HTU21D;51367;45.204;38.576;2023-09-19T05:17:29;19.43;56.07
64874;HTU21D;51367;45.204;38.576;2023-09-19T05:19:55;19.48;55.97
64874;HTU21D;51367;45.204;38.576;2023-09-19T05:22:21;19.57;56.01
64874;HTU21D;51367;45.204;38.576;2023-09-19T05:24:47;19.68;55.90
64874;HTU21D;51367;45.204;38.576;2023-09-19T05:27:16;19.81;55.76
64874;HTU21D;51367;45.204;38.576;2023-09-19T05:29:43;19.95;55.56
64874;HTU21D;51367;45.204;38.576;2023-09-19T05:32:10;20.14;55.45
64874;HTU21D;51367;45.204;38.576;2023-09-19T05:34:37;20.28;55.23
64874;HTU21D;51367;45.204;38.576;2023-09-19T05:37:04;20.35;55.07
64874;HTU21D;51367;45.204;38.576;2023-09-19T05:39:33;20.44;55.13
64874;HTU21D;51367;45.204;38.576;2023-09-19T05:42:00;20.56;55.26
64874;HTU21D;51367;45.204;38.576;2023-09-19T05:44:26;20.72;55.42
64874;HTU21D;51367;45.204;38.576;2023-09-19T05:46:53;20.90;55.30
64874;HTU21D;51367;45.204;38.576;2023-09-19T05:49:22;21.08;54.92
64874;HTU21D;51367;45.204;38.576;2023-09-19T05:51:50;21.22;54.54
64874;HTU21D;51367;45.204;38.576;2023-09-19T05:54:19;21.35;54.23
64874;HTU21D;51367;45.204;38.576;2023-09-19T05:56:45;21.43;53.54
64874;HTU21D;51367;45.204;38.576;2023-09-19T05:59:13;21.50;53.44
64874;HTU21D;51367;45.204;38.576;2023-09-19T06:01:42;21.58;53.28
64874;HTU21D;51367;45.204;38.576;2023-09-19T06:04:08;21.63;53.10
64874;HTU21D;51367;45.204;38.576;2023-09-19T06:06:34;21.74;53.48
64874;HTU21D;51367;45.204;38.576;2023-09-19T06:09:04;21.95;53.67
64874;HTU21D;51367;45.204;38.576;2023-09-19T06:11:35;22.20;53.12
64874;HTU21D;51367;45.204;38.576;2023-09-19T06:14:02;22.44;52.66
64874;HTU21D;51367;45.204;38.576;2023-09-19T06:16:29;22.79;52.58
64874;HTU21D;51367;45.204;38.576;2023-09-19T06:18:55;23.10;51.51
64874;HTU21D;51367;45.204;38.576;2023-09-19T06:21:22;23.30;50.58
64874;HTU21D;51367;45.204;38.576;2023-09-19T06:23:49;23.38;50.72
64874;HTU21D;51367;45.204;38.576;2023-09-19T06:26:15;23.56;50.88
64874;HTU21D;51367;45.204;38.576;2023-09-19T06:28:40;23.80;50.27
64874;HTU21D;51367;45.204;38.576;2023-09-19T06:31:08;24.02;49.76
64874;HTU21D;51367;45.204;38.576;2023-09-19T06:33:36;24.18;49.24
64874;HTU21D;51367;45.204;38.576;2023-09-19T06:36:07;24.28;48.95
64874;HTU21D;51367;45.204;38.576;2023-09-19T06:38:33;24.33;48.77
64874;HTU21D;51367;45.204;38.576;2023-09-19T06:41:02;24.33;48.56
64874;HTU21D;51367;45.204;38.576;2023-09-19T06:43:32;24.32;48.53
64874;HTU21D;51367;45.204;38.576;2023-09-19T06:46:02;24.30;47.96
64874;HTU21D;51367;45.204;38.576;2023-09-19T06:48:29;24.31;47.42
64874;HTU21D;51367;45.204;38.576;2023-09-19T06:50:56;24.33;47.79
64874;HTU21D;51367;45.204;38.576;2023-09-19T06:53:24;24.47;47.88
64874;HTU21D;51367;45.204;38.576;2023-09-19T06:55:51;24.55;47.02
64874;HTU21D;51367;45.204;38.576;2023-09-19T06:58:17;24.54;46.94
64874;HTU21D;51367;45.204;38.576;2023-09-19T07:00:43;24.56;46.83
64874;HTU21D;51367;45.204;38.576;2023-09-19T07:03:10;24.56;46.80
64874;HTU21D;51367;45.204;38.576;2023-09-19T07:05:40;24.58;46.86
64874;HTU21D;51367;45.204;38.576;2023-09-19T07:08:07;24.65;46.30
64874;HTU21D;51367;45.204;38.576;2023-09-19T07:10:35;24.74;46.47
64874;HTU21D;51367;45.204;38.576;2023-09-19T07:13:03;24.84;46.35
64874;HTU21D;51367;45.204;38.576;2023-09-19T07:15:32;24.99;46.31
64874;HTU21D;51367;45.204;38.576;2023-09-19T07:18:01;25.24;46.49
64874;HTU21D;51367;45.204;38.576;2023-09-19T07:20:27;25.52;45.88
64874;HTU21D;51367;45.204;38.576;2023-09-19T07:22:55;25.77;45.67
64874;HTU21D;51367;45.204;38.576;2023-09-19T07:25:21;25.95;45.38
64874;HTU21D;51367;45.204;38.576;2023-09-19T07:27:47;26.09;44.32
64874;HTU21D;51367;45.204;38.576;2023-09-19T07:30:13;26.10;44.02
64874;HTU21D;51367;45.204;38.576;2023-09-19T07:32:40;26.11;43.77
64874;HTU21D;51367;45.204;38.576;2023-09-19T07:35:06;26.08;43.45
64874;HTU21D;51367;45.204;38.576;2023-09-19T07:37:32;26.04;42.94
64874;HTU21D;51367;45.204;38.576;2023-09-19T07:40:07;25.90;42.91
64874;HTU21D;51367;45.204;38.576;2023-09-19T07:42:37;25.87;43.41
64874;HTU21D;51367;45.204;38.576;2023-09-19T07:45:08;25.92;43.57
64874;HTU21D;51367;45.204;38.576;2023-09-19T07:47:34;25.99;43.74
64874;HTU21D;51367;45.204;38.576;2023-09-19T07:50:02;26.11;43.14
64874;HTU21D;51367;45.204;38.576;2023-09-19T07:52:28;26.11;43.00
64874;HTU21D;51367;45.204;38.576;2023-09-19T07:54:55;26.19;42.84
64874;HTU21D;51367;45.204;38.576;2023-09-19T07:57:22;26.22;42.64
64874;HTU21D;51367;45.204;38.576;2023-09-19T07:59:48;26.30;41.82
64874;HTU21D;51367;45.204;38.576;2023-09-19T08:02:14;26.26;41.04
64874;HTU21D;51367;45.204;38.576;2023-09-19T08:04:44;26.18;41.00
64874;HTU21D;51367;45.204;38.576;2023-09-19T08:07:12;26.11;41.38
64874;HTU21D;51367;45.204;38.576;2023-09-19T08:09:41;26.17;41.81
64874;HTU21D;51367;45.204;38.576;2023-09-19T08:12:11;26.28;41.41
64874;HTU21D;51367;45.204;38.576;2023-09-19T08:14:37;26.35;41.12
64874;HTU21D;51367;45.204;38.576;2023-09-19T08:17:03;26.42;40.91
64874;HTU21D;51367;45.204;38.576;2023-09-19T08:19:34;26.48;41.02
64874;HTU21D;51367;45.204;38.576;2023-09-19T08:22:00;26.55;40.84
64874;HTU21D;51367;45.204;38.576;2023-09-19T08:24:27;26.63;40.72
64874;HTU21D;51367;45.204;38.576;2023-09-19T08:26:57;26.63;40.25
64874;HTU21D;51367;45.204;38.576;2023-09-19T08:29:24;26.61;39.66
64874;HTU21D;51367;45.204;38.576;2023-09-19T08:31:57;26.50;39.49
64874;HTU21D;51367;45.204;38.576;2023-09-19T08:34:24;26.43;39.32
64874;HTU21D;51367;45.204;38.576;2023-09-19T08:36:51;26.33;38.97
64874;HTU21D;51367;45.204;38.576;2023-09-19T08:39:18;26.19;39.22
64874;HTU21D;51367;45.204;38.576;2023-09-19T08:41:45;26.10;39.49
64874;HTU21D;51367;45.204;38.576;2023-09-19T08:44:11;26.08;39.66
64874;HTU21D;51367;45.204;38.576;2023-09-19T08:46:40;26.09;39.87
64874;HTU21D;51367;45.204;38.576;2023-09-19T08:49:24;26.16;39.45
64874;HTU21D;51367;45.204;38.576;2023-09-19T08:52:05;26.10;39.02
64874;HTU21D;51367;45.204;38.576;2023-09-19T08:54:37;25.98;39.26
64874;HTU21D;51367;45.204;38.576;2023-09-19T08:57:08;25.98;39.37
64874;HTU21D;51367;45.204;38.576;2023-09-19T08:59:41;25.97;39.04
64874;HTU21D;51367;45.204;38.576;2023-09-19T09:02:14;25.94;38.42
64874;HTU21D;51367;45.204;38.576;2023-09-19T09:04:41;25.94;38.44
64874;HTU21D;51367;45.204;38.576;2023-09-19T09:07:13;25.93;38.13
64874;HTU21D;51367;45.204;38.576;2023-09-19T09:09:40;25.91;38.14
64874;HTU21D;51367;45.204;38.576;2023-09-19T09:12:14;25.95;38.10
64874;HTU21D;51367;45.204;38.576;2023-09-19T09:14:44;25.97;37.76
64874;HTU21D;51367;45.204;38.576;2023-09-19T09:17:11;25.98;37.42
64874;HTU21D;51367;45.204;38.576;2023-09-19T09:19:37;25.99;37.15
64874;HTU21D;51367;45.204;38.576;2023-09-19T09:22:10;25.99;37.11
64874;HTU21D;51367;45.204;38.576;2023-09-19T09:24:37;26.04;37.15
64874;HTU21D;51367;45.204;38.576;2023-09-19T09:27:06;26.04;37.03
64874;HTU21D;51367;45.204;38.576;2023-09-19T09:29:48;26.06;36.66
64874;HTU21D;51367;45.204;38.576;2023-09-19T09:32:20;26.07;36.18
64874;HTU21D;51367;45.204;38.576;2023-09-19T09:34:51;26.05;36.24
64874;HTU21D;51367;45.204;38.576;2023-09-19T09:37:17;26.07;36.26
64874;HTU21D;51367;45.204;38.576;2023-09-19T09:39:50;26.12;36.51
64874;HTU21D;51367;45.204;38.576;2023-09-19T09:42:34;26.20;36.11
64874;HTU21D;51367;45.204;38.576;2023-09-19T09:48:03;26.20;35.66
64874;HTU21D;51367;45.204;38.576;2023-09-19T09:50:31;26.19;35.87
64874;HTU21D;51367;45.204;38.576;2023-09-19T09:53:26;26.21;35.98
64874;HTU21D;51367;45.204;38.576;2023-09-19T09:58:37;26.32;35.98
64874;HTU21D;51367;45.204;38.576;2023-09-19T10:01:04;26.41;36.04
64874;HTU21D;51367;45.204;38.576;2023-09-19T10:03:40;26.50;35.92
64874;HTU21D;51367;45.204;38.576;2023-09-19T10:06:12;26.58;35.82
64874;HTU21D;51367;45.204;38.576;2023-09-19T10:11:47;26.63;35.51
64874;HTU21D;51367;45.204;38.576;2023-09-19T10:14:17;26.63;35.63
64874;HTU21D;51367;45.204;38.576;2023-09-19T10:16:47;26.69;35.81
64874;HTU21D;51367;45.204;38.576;2023-09-19T10:19:23;26.77;35.63
64874;HTU21D;51367;45.204;38.576;2023-09-19T10:21:50;26.83;35.30
64874;HTU21D;51367;45.204;38.576;2023-09-19T10:24:19;26.83;34.89
64874;HTU21D;51367;45.204;38.576;2023-09-19T10:26:46;26.83;35.32
64874;HTU21D;51367;45.204;38.576;2023-09-19T10:29:17;26.89;35.24
64874;HTU21D;51367;45.204;38.576;2023-09-19T10:31:44;26.90;35.21
64874;HTU21D;51367;45.204;38.576;2023-09-19T10:34:17;26.92;35.27
64874;HTU21D;51367;45.204;38.576;2023-09-19T10:36:45;26.97;35.14
64874;HTU21D;51367;45.204;38.576;2023-09-19T10:39:15;27.00;34.77
64874;HTU21D;51367;45.204;38.576;2023-09-19T10:41:50;26.96;34.34
64874;HTU21D;51367;45.204;38.576;2023-09-19T10:44:24;26.95;34.43
64874;HTU21D;51367;45.204;38.576;2023-09-19T10:46:52;26.97;34.50
64874;HTU21D;51367;45.204;38.576;2023-09-19T10:49:20;27.02;34.39
64874;HTU21D;51367;45.204;38.576;2023-09-19T10:51:47;27.07;34.53
64874;HTU21D;51367;45.204;38.576;2023-09-19T10:54:18;27.17;34.73
64874;HTU21D;51367;45.204;38.576;2023-09-19T10:56:49;27.24;34.36
64874;HTU21D;51367;45.204;38.576;2023-09-19T10:59:18;27.24;34.59
64874;HTU21D;51367;45.204;38.576;2023-09-19T11:01:53;27.26;34.65
64874;HTU21D;51367;45.204;38.576;2023-09-19T11:04:30;27.32;34.12
64874;HTU21D;51367;45.204;38.576;2023-09-19T11:09:55;27.30;33.91
64874;HTU21D;51367;45.204;38.576;2023-09-19T11:26:45;27.35;33.96
64874;HTU21D;51367;45.204;38.576;2023-09-19T11:29:27;27.38;33.83
64874;HTU21D;51367;45.204;38.576;2023-09-19T11:31:55;27.43;34.11
64874;HTU21D;51367;45.204;38.576;2023-09-19T11:34:38;27.56;34.23
64874;HTU21D;51367;45.204;38.576;2023-09-19T11:39:37;27.61;33.70
64874;HTU21D;51367;45.204;38.576;2023-09-19T11:42:47;27.58;33.55
64874;HTU21D;51367;45.204;38.576;2023-09-19T11:48:23;27.60;33.73
64874;HTU21D;51367;45.204;38.576;2023-09-19T11:50:53;27.65;33.76
64874;HTU21D;51367;45.204;38.576;2023-09-19T11:53:21;27.70;33.95
64874;HTU21D;51367;45.204;38.576;2023-09-19T11:55:47;27.78;34.04
64874;HTU21D;51367;45.204;38.576;2023-09-19T11:58:15;27.84;33.72
64874;HTU21D;51367;45.204;38.576;2023-09-19T12:00:43;27.82;33.58
64874;HTU21D;51367;45.204;38.576;2023-09-19T12:03:11;27.79;33.75
64874;HTU21D;51367;45.204;38.576;2023-09-19T12:05:40;27.79;33.62
64874;HTU21D;51367;45.204;38.576;2023-09-19T12:08:07;27.82;33.39
64874;HTU21D;51367;45.204;38.576;2023-09-19T12:10:48;27.82;33.28
64874;HTU21D;51367;45.204;38.576;2023-09-19T12:13:20;27.83;33.31
64874;HTU21D;51367;45.204;38.576;2023-09-19T12:15:47;27.82;33.38
64874;HTU21D;51367;45.204;38.576;2023-09-19T12:18:28;27.83;33.45
64874;HTU21D;51367;45.204;38.576;2023-09-19T12:20:55;27.87;33.60
64874;HTU21D;51367;45.204;38.576;2023-09-19T12:23:23;27.91;33.28
64874;HTU21D;51367;45.204;38.576;2023-09-19T12:25:52;27.94;33.25
64874;HTU21D;51367;45.204;38.576;2023-09-19T12:28:19;27.91;32.96
64874;HTU21D;51367;45.204;38.576;2023-09-19T12:30:49;27.90;32.75
64874;HTU21D;51367;45.204;38.576;2023-09-19T12:33:18;27.90;32.87
64874;HTU21D;51367;45.204;38.576;2023-09-19T12:35:51;27.91;32.78
64874;HTU21D;51367;45.204;38.576;2023-09-19T12:38:25;27.90;32.57
64874;HTU21D;51367;45.204;38.576;2023-09-19T12:40:57;27.87;32.20
64874;HTU21D;51367;45.204;38.576;2023-09-19T12:43:27;27.84;32.28
64874;HTU21D;51367;45.204;38.576;2023-09-19T12:45:53;27.86;32.71
64874;HTU21D;51367;45.204;38.576;2023-09-19T12:53:46;27.81;31.63
64874;HTU21D;51367;45.204;38.576;2023-09-19T12:56:15;27.78;31.64
64874;HTU21D;51367;45.204;38.576;2023-09-19T12:58:58;27.79;31.87
64874;HTU21D;51367;45.204;38.576;2023-09-19T13:01:27;27.82;32.02
64874;HTU21D;51367;45.204;38.576;2023-09-19T13:04:18;27.82;31.66
64874;HTU21D;51367;45.204;38.576;2023-09-19T13:06:51;27.81;31.85
64874;HTU21D;51367;45.204;38.576;2023-09-19T13:09:19;27.78;31.73
64874;HTU21D;51367;45.204;38.576;2023-09-19T13:11:50;27.74;31.91
64874;HTU21D;51367;45.204;38.576;2023-09-19T13:14:26;27.73;32.05
64874;HTU21D;51367;45.204;38.576;2023-09-19T13:16:59;27.72;32.10
64874;HTU21D;51367;45.204;38.576;2023-09-19T13:19:37;27.69;32.35
64874;HTU21D;51367;45.204;38.576;2023-09-19T13:22:03;27.68;32.36
64874;HTU21D;51367;45.204;38.576;2023-09-19T13:24:29;27.68;32.28
64874;HTU21D;51367;45.204;38.576;2023-09-19T13:26:56;27.68;32.14
64874;HTU21D;51367;45.204;38.576;2023-09-19T13:29:22;27.68;32.31
64874;HTU21D;51367;45.204;38.576;2023-09-19T13:31:49;27.70;32.30
64874;HTU21D;51367;45.204;38.576;2023-09-19T13:34:16;27.67;32.22
64874;HTU21D;51367;45.204;38.576;2023-09-19T13:36:43;27.59;32.02
64874;HTU21D;51367;45.204;38.576;2023-09-19T13:39:09;27.56;32.46
64874;HTU21D;51367;45.204;38.576;2023-09-19T13:41:36;27.53;32.59
64874;HTU21D;51367;45.204;38.576;2023-09-19T13:44:05;27.51;32.70
64874;HTU21D;51367;45.204;38.576;2023-09-19T13:46:31;27.46;32.64
64874;HTU21D;51367;45.204;38.576;2023-09-19T13:49:01;27.41;32.43
64874;HTU21D;51367;45.204;38.576;2023-09-19T13:51:30;27.39;32.44
64874;HTU21D;51367;45.204;38.576;2023-09-19T13:53:56;27.37;32.48
64874;HTU21D;51367;45.204;38.576;2023-09-19T13:56:22;27.32;32.20
64874;HTU21D;51367;45.204;38.576;2023-09-19T13:58:49;27.26;32.22
64874;HTU21D;51367;45.204;38.576;2023-09-19T14:01:15;27.21;32.14
64874;HTU21D;51367;45.204;38.576;2023-09-19T14:03:41;27.19;32.33
64874;HTU21D;51367;45.204;38.576;2023-09-19T14:06:13;27.15;32.26
64874;HTU21D;51367;45.204;38.576;2023-09-19T14:08:39;27.12;32.40
64874;HTU21D;51367;45.204;38.576;2023-09-19T14:11:08;27.10;32.29
64874;HTU21D;51367;45.204;38.576;2023-09-19T14:13:34;27.06;32.39
64874;HTU21D;51367;45.204;38.576;2023-09-19T14:16:07;27.02;32.32
64874;HTU21D;51367;45.204;38.576;2023-09-19T14:18:36;26.98;32.28
64874;HTU21D;51367;45.204;38.576;2023-09-19T14:21:06;26.93;32.17
64874;HTU21D;51367;45.204;38.576;2023-09-19T14:23:40;26.89;32.48
64874;HTU21D;51367;45.204;38.576;2023-09-19T14:26:08;26.84;32.59
64874;HTU21D;51367;45.204;38.576;2023-09-19T14:28:34;26.80;32.63
64874;HTU21D;51367;45.204;38.576;2023-09-19T14:31:19;26.75;32.59
64874;HTU21D;51367;45.204;38.576;2023-09-19T14:33:45;26.71;32.83
64874;HTU21D;51367;45.204;38.576;2023-09-19T14:36:11;26.64;32.83
64874;HTU21D;51367;45.204;38.576;2023-09-19T14:38:38;26.60;32.93
64874;HTU21D;51367;45.204;38.576;2023-09-19T14:41:05;26.51;32.83
64874;HTU21D;51367;45.204;38.576;2023-09-19T14:43:32;26.45;32.83
64874;HTU21D;51367;45.204;38.576;2023-09-19T14:46:05;26.38;32.83
64874;HTU21D;51367;45.204;38.576;2023-09-19T14:48:36;26.30;32.99
64874;HTU21D;51367;45.204;38.576;2023-09-19T14:51:06;26.24;33.14
64874;HTU21D;51367;45.204;38.576;2023-09-19T14:53:34;26.16;33.29
64874;HTU21D;51367;45.204;38.576;2023-09-19T14:56:01;26.09;33.40
64874;HTU21D;51367;45.204;38.576;2023-09-19T14:58:33;25.99;33.47
64874;HTU21D;51367;45.204;38.576;2023-09-19T15:01:07;25.92;33.60
64874;HTU21D;51367;45.204;38.576;2023-09-19T15:03:34;25.82;33.75
64874;HTU21D;51367;45.204;38.576;2023-09-19T15:06:06;25.72;33.87
64874;HTU21D;51367;45.204;38.576;2023-09-19T15:08:36;25.61;34.04
64874;HTU21D;51367;45.204;38.576;2023-09-19T15:11:07;25.50;34.18
64874;HTU21D;51367;45.204;38.576;2023-09-19T15:13:34;25.38;34.30
64874;HTU21D;51367;45.204;38.576;2023-09-19T15:16:07;25.30;34.37
64874;HTU21D;51367;45.204;38.576;2023-09-19T15:18:37;25.20;34.49
64874;HTU21D;51367;45.204;38.576;2023-09-19T15:21:04;25.09;34.60
64874;HTU21D;51367;45.204;38.576;2023-09-19T15:23:33;24.99;34.69
64874;HTU21D;51367;45.204;38.576;2023-09-19T15:26:01;24.90;34.82
64874;HTU21D;51367;45.204;38.576;2023-09-19T15:28:27;24.78;34.94
64874;HTU21D;51367;45.204;38.576;2023-09-19T15:30:59;24.68;35.03
64874;HTU21D;51367;45.204;38.576;2023-09-19T15:33:25;24.57;35.18
64874;HTU21D;51367;45.204;38.576;2023-09-19T15:36:04;24.46;35.27
64874;HTU21D;51367;45.204;38.576;2023-09-19T15:38:30;24.32;35.44
64874;HTU21D;51367;45.204;38.576;2023-09-19T15:41:00;24.21;35.59
64874;HTU21D;51367;45.204;38.576;2023-09-19T15:43:26;24.11;35.72
64874;HTU21D;51367;45.204;38.576;2023-09-19T15:45:52;24.00;35.85
64874;HTU21D;51367;45.204;38.576;2023-09-19T15:48:18;23.88;35.96
64874;HTU21D;51367;45.204;38.576;2023-09-19T15:50:47;23.79;36.08
64874;HTU21D;51367;45.204;38.576;2023-09-19T15:53:13;23.69;36.18
64874;HTU21D;51367;45.204;38.576;2023-09-19T15:55:39;23.59;36.30
64874;HTU21D;51367;45.204;38.576;2023-09-19T15:58:05;23.49;36.39
64874;HTU21D;51367;45.204;38.576;2023-09-19T16:00:34;23.39;36.50
64874;HTU21D;51367;45.204;38.576;2023-09-19T16:03:02;23.34;36.63
64874;HTU21D;51367;45.204;38.576;2023-09-19T16:05:34;23.25;36.72
64874;HTU21D;51367;45.204;38.576;2023-09-19T16:08:06;23.16;36.81
64874;HTU21D;51367;45.204;38.576;2023-09-19T16:10:36;23.08;36.92
64874;HTU21D;51367;45.204;38.576;2023-09-19T16:13:03;23.00;37.01